sensor_id;sensor_type;location;lat;lon;timestamp;pressure;altitude;pressure_sealevel;temperature
76381;BMP280;65202;52.520;10.528;2023-03-01T00:01:40;102665.94;;;-1.02
76381;BMP280;65202;52.520;10.528;2023-03-01T00:04:07;102663.03;;;-1.26
76381;BMP280;65202;52.520;10.528;2023-03-01T00:06:34;102660.97;;;-1.16
76381;BMP280;65202;52.520;10.528;2023-03-01T00:09:02;102663.44;;;-1.09
76381;BMP280;65202;52.520;10.528;2023-03-01T00:11:31;102667.41;;;-1.57
76381;BMP280;65202;52.520;10.528;2023-03-01T00:14:01;102665.75;;;-1.44
76381;BMP280;65202;52.520;10.528;2023-03-01T00:16:32;102658.25;;;-0.84
76381;BMP280;65202;52.520;10.528;2023-03-01T00:19:01;102653.59;;;-0.62
76381;BMP280;65202;52.520;10.528;2023-03-01T00:21:29;102649.91;;;-0.59
76381;BMP280;65202;52.520;10.528;2023-03-01T00:23:57;102655.63;;;-0.86
76381;BMP280;65202;52.520;10.528;2023-03-01T00:26:25;102651.06;;;-1.30
76381;BMP280;65202;52.520;10.528;2023-03-01T00:28:53;102649.41;;;-1.03
76381;BMP280;65202;52.520;10.528;2023-03-01T00:31:23;102656.41;;;-1.13
76381;BMP280;65202;52.520;10.528;2023-03-01T00:33:55;102650.66;;;-1.00
76381;BMP280;65202;52.520;10.528;2023-03-01T00:36:26;102653.19;;;-1.26
76381;BMP280;65202;52.520;10.528;2023-03-01T00:38:57;102651.72;;;-1.05
76381;BMP280;65202;52.520;10.528;2023-03-01T00:41:24;102660.44;;;-1.54
76381;BMP280;65202;52.520;10.528;2023-03-01T00:43:53;102667.41;;;-1.57
76381;BMP280;65202;52.520;10.528;2023-03-01T00:46:23;102665.09;;;-1.36
76381;BMP280;65202;52.520;10.528;2023-03-01T00:48:53;102660.84;;;-1.44
76381;BMP280;65202;52.520;10.528;2023-03-01T00:51:23;102645.97;;;-1.31
76381;BMP280;65202;52.520;10.528;2023-03-01T00:53:54;102655.63;;;-1.66
76381;BMP280;65202;52.520;10.528;2023-03-01T00:56:23;102650.78;;;-1.52
76381;BMP280;65202;52.520;10.528;2023-03-01T00:58:51;102650.28;;;-1.43
76381;BMP280;65202;52.520;10.528;2023-03-01T01:01:21;102649.47;;;-1.63
76381;BMP280;65202;52.520;10.528;2023-03-01T01:03:54;102652.66;;;-1.64
76381;BMP280;65202;52.520;10.528;2023-03-01T01:06:28;102661.03;;;-1.95
76381;BMP280;65202;52.520;10.528;2023-03-01T01:08:58;102643.81;;;-1.42
76381;BMP280;65202;52.520;10.528;2023-03-01T01:11:28;102657.63;;;-2.02
76381;BMP280;65202;52.520;10.528;2023-03-01T01:13:57;102652.16;;;-1.81
76381;BMP280;65202;52.520;10.528;2023-03-01T01:16:26;102643.13;;;-1.68
76381;BMP280;65202;52.520;10.528;2023-03-01T01:18:56;102642.59;;;-1.98
76381;BMP280;65202;52.520;10.528;2023-03-01T01:21:25;102635.25;;;-1.91
76381;BMP280;65202;52.520;10.528;2023-03-01T01:23:53;102641.13;;;-2.03
76381;BMP280;65202;52.520;10.528;2023-03-01T01:26:31;102644.88;;;-2.19
76381;BMP280;65202;52.520;10.528;2023-03-01T01:29:01;102649.72;;;-1.81
76381;BMP280;65202;52.520;10.528;2023-03-01T01:31:31;102652.56;;;-1.78
76381;BMP280;65202;52.520;10.528;2023-03-01T01:34:01;102639.78;;;-1.75
76381;BMP280;65202;52.520;10.528;2023-03-01T01:36:31;102636.09;;;-1.72
76381;BMP280;65202;52.520;10.528;2023-03-01T01:38:59;102641.72;;;-1.99
76381;BMP280;65202;52.520;10.528;2023-03-01T01:41:28;102641.25;;;-1.89
76381;BMP280;65202;52.520;10.528;2023-03-01T01:44:17;102639.53;;;-1.84
76381;BMP280;65202;52.520;10.528;2023-03-01T01:49:38;102624.88;;;-1.70
76381;BMP280;65202;52.520;10.528;2023-03-01T01:52:35;102634.22;;;-1.87
76381;BMP280;65202;52.520;10.528;2023-03-01T01:55:08;102633.59;;;-1.79
76381;BMP280;65202;52.520;10.528;2023-03-01T01:57:51;102637.81;;;-2.04
76381;BMP280;65202;52.520;10.528;2023-03-01T02:00:29;102637.50;;;-2.00
76381;BMP280;65202;52.520;10.528;2023-03-01T02:02:59;102631.97;;;-2.11
76381;BMP280;65202;52.520;10.528;2023-03-01T02:08:26;102632.56;;;-2.26
76381;BMP280;65202;52.520;10.528;2023-03-01T02:10:58;102620.81;;;-2.02
76381;BMP280;65202;52.520;10.528;2023-03-01T02:13:27;102612.44;;;-1.31
76381;BMP280;65202;52.520;10.528;2023-03-01T02:15:55;102615.66;;;-1.18
76381;BMP280;65202;52.520;10.528;2023-03-01T02:18:23;102611.81;;;-1.56
76381;BMP280;65202;52.520;10.528;2023-03-01T02:23:43;102610.06;;;-1.84
76381;BMP280;65202;52.520;10.528;2023-03-01T02:29:06;102618.59;;;-2.40
76381;BMP280;65202;52.520;10.528;2023-03-01T02:31:33;102604.91;;;-2.18
76381;BMP280;65202;52.520;10.528;2023-03-01T02:34:13;102604.13;;;-2.31
76381;BMP280;65202;52.520;10.528;2023-03-01T02:36:49;102599.69;;;-2.14
76381;BMP280;65202;52.520;10.528;2023-03-01T02:39:28;102587.13;;;-2.49
76381;BMP280;65202;52.520;10.528;2023-03-01T02:42:01;102573.78;;;-2.05
76381;BMP280;65202;52.520;10.528;2023-03-01T02:44:30;102567.78;;;-1.48
76381;BMP280;65202;52.520;10.528;2023-03-01T02:47:01;102563.34;;;-1.10
76381;BMP280;65202;52.520;10.528;2023-03-01T02:49:33;102558.06;;;-1.13
76381;BMP280;65202;52.520;10.528;2023-03-01T02:55:20;102550.22;;;-1.51
76381;BMP280;65202;52.520;10.528;2023-03-01T02:57:48;102553.88;;;-1.61
76381;BMP280;65202;52.520;10.528;2023-03-01T03:00:23;102548.06;;;-1.62
76381;BMP280;65202;52.520;10.528;2023-03-01T03:02:54;102554.00;;;-1.67
76381;BMP280;65202;52.520;10.528;2023-03-01T03:05:26;102549.91;;;-1.47
76381;BMP280;65202;52.520;10.528;2023-03-01T03:07:55;102543.22;;;-1.48
76381;BMP280;65202;52.520;10.528;2023-03-01T03:10:29;102547.81;;;-1.44
76381;BMP280;65202;52.520;10.528;2023-03-01T03:13:10;102554.63;;;-1.82
76381;BMP280;65202;52.520;10.528;2023-03-01T03:15:41;102546.69;;;-1.53
76381;BMP280;65202;52.520;10.528;2023-03-01T03:18:15;102555.50;;;-1.48
76381;BMP280;65202;52.520;10.528;2023-03-01T03:20:44;102553.66;;;-1.70
76381;BMP280;65202;52.520;10.528;2023-03-01T03:23:12;102555.72;;;-1.39
76381;BMP280;65202;52.520;10.528;2023-03-01T03:25:40;102554.16;;;-1.32
76381;BMP280;65202;52.520;10.528;2023-03-01T03:28:07;102547.72;;;-1.58
76381;BMP280;65202;52.520;10.528;2023-03-01T03:30:40;102547.28;;;-1.82
76381;BMP280;65202;52.520;10.528;2023-03-01T03:33:09;102549.38;;;-1.85
76381;BMP280;65202;52.520;10.528;2023-03-01T03:35:42;102558.56;;;-2.29
76381;BMP280;65202;52.520;10.528;2023-03-01T03:38:13;102553.94;;;-2.14
76381;BMP280;65202;52.520;10.528;2023-03-01T03:40:46;102564.25;;;-2.43
76381;BMP280;65202;52.520;10.528;2023-03-01T03:43:31;102554.63;;;-2.41
76381;BMP280;65202;52.520;10.528;2023-03-01T03:45:59;102548.53;;;-2.11
76381;BMP280;65202;52.520;10.528;2023-03-01T03:48:27;102558.34;;;-2.38
76381;BMP280;65202;52.520;10.528;2023-03-01T03:50:55;102554.56;;;-2.48
76381;BMP280;65202;52.520;10.528;2023-03-01T03:53:25;102543.66;;;-2.04
76381;BMP280;65202;52.520;10.528;2023-03-01T03:55:54;102562.59;;;-2.49
76381;BMP280;65202;52.520;10.528;2023-03-01T03:58:23;102564.13;;;-2.76
76381;BMP280;65202;52.520;10.528;2023-03-01T04:00:55;102560.25;;;-2.61
76381;BMP280;65202;52.520;10.528;2023-03-01T04:03:25;102560.78;;;-2.38
76381;BMP280;65202;52.520;10.528;2023-03-01T04:05:54;102573.91;;;-2.37
76381;BMP280;65202;52.520;10.528;2023-03-01T04:08:23;102580.53;;;-2.43
76381;BMP280;65202;52.520;10.528;2023-03-01T04:10:52;102578.47;;;-2.79
76381;BMP280;65202;52.520;10.528;2023-03-01T04:13:25;102580.59;;;-3.07
76381;BMP280;65202;52.520;10.528;2023-03-01T04:15:53;102583.28;;;-3.05
76381;BMP280;65202;52.520;10.528;2023-03-01T04:18:23;102575.81;;;-3.00
76381;BMP280;65202;52.520;10.528;2023-03-01T04:20:53;102576.75;;;-2.73
76381;BMP280;65202;52.520;10.528;2023-03-01T04:23:22;102574.00;;;-2.69
76381;BMP280;65202;52.520;10.528;2023-03-01T04:25:55;102570.91;;;-2.80
76381;BMP280;65202;52.520;10.528;2023-03-01T04:28:26;102574.69;;;-2.70
76381;BMP280;65202;52.520;10.528;2023-03-01T04:31:22;102567.94;;;-2.78
76381;BMP280;65202;52.520;10.528;2023-03-01T04:33:52;102567.91;;;-2.85
76381;BMP280;65202;52.520;10.528;2023-03-01T04:36:26;102579.19;;;-3.12
76381;BMP280;65202;52.520;10.528;2023-03-01T04:38:55;102579.28;;;-3.17
76381;BMP280;65202;52.520;10.528;2023-03-01T04:41:24;102560.88;;;-2.89
76381;BMP280;65202;52.520;10.528;2023-03-01T04:43:52;102568.59;;;-2.86
76381;BMP280;65202;52.520;10.528;2023-03-01T04:46:20;102563.50;;;-2.49
76381;BMP280;65202;52.520;10.528;2023-03-01T04:48:55;102568.00;;;-2.52
76381;BMP280;65202;52.520;10.528;2023-03-01T04:51:23;102567.25;;;-2.38
76381;BMP280;65202;52.520;10.528;2023-03-01T04:53:50;102565.75;;;-2.69
76381;BMP280;65202;52.520;10.528;2023-03-01T04:56:18;102552.72;;;-2.37
76381;BMP280;65202;52.520;10.528;2023-03-01T04:58:46;102559.84;;;-2.45
76381;BMP280;65202;52.520;10.528;2023-03-01T05:01:15;102571.28;;;-3.28
76381;BMP280;65202;52.520;10.528;2023-03-01T05:03:50;102559.09;;;-2.90
76381;BMP280;65202;52.520;10.528;2023-03-01T05:06:19;102551.09;;;-3.01
76381;BMP280;65202;52.520;10.528;2023-03-01T05:08:47;102544.38;;;-2.51
76381;BMP280;65202;52.520;10.528;2023-03-01T05:11:15;102538.06;;;-2.30
76381;BMP280;65202;52.520;10.528;2023-03-01T05:13:43;102536.63;;;-2.08
76381;BMP280;65202;52.520;10.528;2023-03-01T05:16:10;102549.75;;;-2.34
76381;BMP280;65202;52.520;10.528;2023-03-01T05:18:39;102552.09;;;-2.87
76381;BMP280;65202;52.520;10.528;2023-03-01T05:21:12;102549.22;;;-2.58
76381;BMP280;65202;52.520;10.528;2023-03-01T05:23:43;102555.13;;;-2.63
76381;BMP280;65202;52.520;10.528;2023-03-01T05:26:11;102554.97;;;-2.84
76381;BMP280;65202;52.520;10.528;2023-03-01T05:28:54;102547.31;;;-2.73
76381;BMP280;65202;52.520;10.528;2023-03-01T05:31:26;102554.00;;;-2.72
76381;BMP280;65202;52.520;10.528;2023-03-01T05:33:53;102540.47;;;-2.75
76381;BMP280;65202;52.520;10.528;2023-03-01T05:36:21;102543.91;;;-2.42
76381;BMP280;65202;52.520;10.528;2023-03-01T05:38:48;102545.28;;;-2.70
76381;BMP280;65202;52.520;10.528;2023-03-01T05:41:15;102548.03;;;-2.74
76381;BMP280;65202;52.520;10.528;2023-03-01T05:43:43;102549.66;;;-2.48
76381;BMP280;65202;52.520;10.528;2023-03-01T05:46:12;102550.13;;;-2.31
76381;BMP280;65202;52.520;10.528;2023-03-01T05:48:40;102553.69;;;-2.49
76381;BMP280;65202;52.520;10.528;2023-03-01T05:51:08;102551.66;;;-2.12
76381;BMP280;65202;52.520;10.528;2023-03-01T05:53:35;102542.03;;;-2.11
76381;BMP280;65202;52.520;10.528;2023-03-01T05:56:03;102548.78;;;-2.49
76381;BMP280;65202;52.520;10.528;2023-03-01T05:58:31;102544.59;;;-2.69
76381;BMP280;65202;52.520;10.528;2023-03-01T06:00:58;102549.31;;;-2.44
76381;BMP280;65202;52.520;10.528;2023-03-01T06:03:25;102549.91;;;-2.98
76381;BMP280;65202;52.520;10.528;2023-03-01T06:05:56;102553.13;;;-3.55
76381;BMP280;65202;52.520;10.528;2023-03-01T06:08:24;102551.66;;;-3.16
76381;BMP280;65202;52.520;10.528;2023-03-01T06:10:53;102546.03;;;-3.03
76381;BMP280;65202;52.520;10.528;2023-03-01T06:13:21;102530.94;;;-2.48
76381;BMP280;65202;52.520;10.528;2023-03-01T06:15:50;102545.69;;;-2.41
76381;BMP280;65202;52.520;10.528;2023-03-01T06:18:17;102542.47;;;-3.05
76381;BMP280;65202;52.520;10.528;2023-03-01T06:20:45;102548.91;;;-2.93
76381;BMP280;65202;52.520;10.528;2023-03-01T06:23:19;102549.22;;;-2.97
76381;BMP280;65202;52.520;10.528;2023-03-01T06:25:46;102551.06;;;-2.89
76381;BMP280;65202;52.520;10.528;2023-03-01T06:28:13;102542.69;;;-2.84
76381;BMP280;65202;52.520;10.528;2023-03-01T06:30:40;102542.47;;;-2.47
76381;BMP280;65202;52.520;10.528;2023-03-01T06:33:08;102554.63;;;-2.60
76381;BMP280;65202;52.520;10.528;2023-03-01T06:35:35;102560.13;;;-3.26
76381;BMP280;65202;52.520;10.528;2023-03-01T06:38:03;102561.47;;;-2.97
76381;BMP280;65202;52.520;10.528;2023-03-01T06:40:31;102546.19;;;-2.82
76381;BMP280;65202;52.520;10.528;2023-03-01T06:42:58;102554.94;;;-2.45
76381;BMP280;65202;52.520;10.528;2023-03-01T06:45:26;102552.56;;;-2.77
76381;BMP280;65202;52.520;10.528;2023-03-01T06:48:01;102557.56;;;-3.02
76381;BMP280;65202;52.520;10.528;2023-03-01T06:50:30;102557.56;;;-3.33
76381;BMP280;65202;52.520;10.528;2023-03-01T06:52:57;102544.53;;;-2.56
76381;BMP280;65202;52.520;10.528;2023-03-01T06:55:25;102540.94;;;-2.39
76381;BMP280;65202;52.520;10.528;2023-03-01T06:57:56;102533.22;;;-1.89
76381;BMP280;65202;52.520;10.528;2023-03-01T07:00:25;102534.41;;;-1.60
76381;BMP280;65202;52.520;10.528;2023-03-01T07:02:53;102531.50;;;-1.84
76381;BMP280;65202;52.520;10.528;2023-03-01T07:05:20;102530.25;;;-1.47
76381;BMP280;65202;52.520;10.528;2023-03-01T07:07:48;102534.91;;;-2.02
76381;BMP280;65202;52.520;10.528;2023-03-01T07:10:15;102528.41;;;-1.69
76381;BMP280;65202;52.520;10.528;2023-03-01T07:12:42;102524.97;;;-1.50
76381;BMP280;65202;52.520;10.528;2023-03-01T07:15:10;102534.72;;;-1.71
76381;BMP280;65202;52.520;10.528;2023-03-01T07:17:37;102524.53;;;-1.74
76381;BMP280;65202;52.520;10.528;2023-03-01T07:20:05;102518.94;;;-1.66
76381;BMP280;65202;52.520;10.528;2023-03-01T07:22:32;102529.56;;;-1.79
76381;BMP280;65202;52.520;10.528;2023-03-01T07:24:59;102519.09;;;-2.04
76381;BMP280;65202;52.520;10.528;2023-03-01T07:27:26;102522.22;;;-2.12
76381;BMP280;65202;52.520;10.528;2023-03-01T07:29:53;102515.69;;;-1.92
76381;BMP280;65202;52.520;10.528;2023-03-01T07:32:20;102518.16;;;-1.86
76381;BMP280;65202;52.520;10.528;2023-03-01T07:34:48;102522.41;;;-1.78
76381;BMP280;65202;52.520;10.528;2023-03-01T07:37:15;102524.19;;;-1.70
76381;BMP280;65202;52.520;10.528;2023-03-01T07:39:42;102517.91;;;-1.61
76381;BMP280;65202;52.520;10.528;2023-03-01T07:42:09;102514.81;;;-1.39
76381;BMP280;65202;52.520;10.528;2023-03-01T07:44:36;102527.09;;;-1.46
76381;BMP280;65202;52.520;10.528;2023-03-01T07:47:04;102517.13;;;1.29
76381;BMP280;65202;52.520;10.528;2023-03-01T07:49:31;102516.84;;;2.41
76381;BMP280;65202;52.520;10.528;2023-03-01T07:51:58;102512.06;;;3.38
76381;BMP280;65202;52.520;10.528;2023-03-01T07:54:26;102507.13;;;3.95
76381;BMP280;65202;52.520;10.528;2023-03-01T07:56:53;102497.63;;;4.84
76381;BMP280;65202;52.520;10.528;2023-03-01T07:59:21;102497.97;;;6.58
76381;BMP280;65202;52.520;10.528;2023-03-01T08:01:50;102486.50;;;6.68
76381;BMP280;65202;52.520;10.528;2023-03-01T08:04:17;102489.06;;;7.26
76381;BMP280;65202;52.520;10.528;2023-03-01T08:06:44;102494.00;;;6.88
76381;BMP280;65202;52.520;10.528;2023-03-01T08:09:11;102485.47;;;7.43
76381;BMP280;65202;52.520;10.528;2023-03-01T08:11:39;102479.41;;;7.99
76381;BMP280;65202;52.520;10.528;2023-03-01T08:14:06;102472.47;;;8.77
76381;BMP280;65202;52.520;10.528;2023-03-01T08:16:33;102469.94;;;8.87
76381;BMP280;65202;52.520;10.528;2023-03-01T08:19:10;102468.81;;;9.15
76381;BMP280;65202;52.520;10.528;2023-03-01T08:21:38;102462.22;;;9.48
76381;BMP280;65202;52.520;10.528;2023-03-01T08:24:07;102454.81;;;10.49
76381;BMP280;65202;52.520;10.528;2023-03-01T08:26:34;102454.47;;;9.66
76381;BMP280;65202;52.520;10.528;2023-03-01T08:29:02;102460.13;;;9.64
76381;BMP280;65202;52.520;10.528;2023-03-01T08:31:33;102441.09;;;11.03
76381;BMP280;65202;52.520;10.528;2023-03-01T08:34:07;102442.66;;;10.89
76381;BMP280;65202;52.520;10.528;2023-03-01T08:36:40;102443.00;;;11.18
76381;BMP280;65202;52.520;10.528;2023-03-01T08:39:10;102434.91;;;11.58
76381;BMP280;65202;52.520;10.528;2023-03-01T08:41:40;102430.53;;;12.18
76381;BMP280;65202;52.520;10.528;2023-03-01T08:44:09;102428.66;;;12.80
76381;BMP280;65202;52.520;10.528;2023-03-01T08:46:39;102424.94;;;12.48
76381;BMP280;65202;52.520;10.528;2023-03-01T08:49:11;102426.50;;;12.07
76381;BMP280;65202;52.520;10.528;2023-03-01T08:51:43;102432.75;;;12.65
76381;BMP280;65202;52.520;10.528;2023-03-01T08:54:14;102428.88;;;11.93
76381;BMP280;65202;52.520;10.528;2023-03-01T08:56:43;102430.66;;;11.70
76381;BMP280;65202;52.520;10.528;2023-03-01T08:59:11;102430.22;;;11.88
76381;BMP280;65202;52.520;10.528;2023-03-01T09:01:40;102440.00;;;12.74
76381;BMP280;65202;52.520;10.528;2023-03-01T09:04:11;102439.28;;;13.02
76381;BMP280;65202;52.520;10.528;2023-03-01T09:06:39;102434.00;;;12.72
76381;BMP280;65202;52.520;10.528;2023-03-01T09:09:06;102440.69;;;11.70
76381;BMP280;65202;52.520;10.528;2023-03-01T09:11:42;102438.09;;;12.05
76381;BMP280;65202;52.520;10.528;2023-03-01T09:14:13;102441.63;;;11.96
76381;BMP280;65202;52.520;10.528;2023-03-01T09:16:41;102443.50;;;11.26
76381;BMP280;65202;52.520;10.528;2023-03-01T09:19:08;102437.41;;;12.47
76381;BMP280;65202;52.520;10.528;2023-03-01T09:21:37;102439.84;;;11.69
76381;BMP280;65202;52.520;10.528;2023-03-01T09:24:12;102437.78;;;12.01
76381;BMP280;65202;52.520;10.528;2023-03-01T09:26:41;102433.44;;;12.89
76381;BMP280;65202;52.520;10.528;2023-03-01T09:29:09;102425.06;;;12.37
76381;BMP280;65202;52.520;10.528;2023-03-01T09:31:37;102436.41;;;11.56
76381;BMP280;65202;52.520;10.528;2023-03-01T09:34:05;102428.63;;;11.64
76381;BMP280;65202;52.520;10.528;2023-03-01T09:36:33;102421.78;;;11.02
76381;BMP280;65202;52.520;10.528;2023-03-01T09:39:02;102414.94;;;12.75
76381;BMP280;65202;52.520;10.528;2023-03-01T09:41:42;102415.03;;;12.77
76381;BMP280;65202;52.520;10.528;2023-03-01T09:46:59;102419.34;;;12.00
76381;BMP280;65202;52.520;10.528;2023-03-01T09:49:32;102413.72;;;11.92
76381;BMP280;65202;52.520;10.528;2023-03-01T09:54:54;102410.66;;;12.21
76381;BMP280;65202;52.520;10.528;2023-03-01T09:57:33;102418.38;;;12.11
76381;BMP280;65202;52.520;10.528;2023-03-01T10:00:22;102416.06;;;12.27
76381;BMP280;65202;52.520;10.528;2023-03-01T10:03:06;102422.44;;;12.35
76381;BMP280;65202;52.520;10.528;2023-03-01T10:05:41;102413.94;;;12.07
76381;BMP280;65202;52.520;10.528;2023-03-01T10:08:26;102407.06;;;12.44
76381;BMP280;65202;52.520;10.528;2023-03-01T10:10:58;102414.53;;;11.42
76381;BMP280;65202;52.520;10.528;2023-03-01T10:13:50;102395.56;;;11.83
76381;BMP280;65202;52.520;10.528;2023-03-01T10:19:22;102403.25;;;11.48
76381;BMP280;65202;52.520;10.528;2023-03-01T10:21:57;102412.16;;;11.19
76381;BMP280;65202;52.520;10.528;2023-03-01T10:24:34;102414.03;;;10.74
76381;BMP280;65202;52.520;10.528;2023-03-01T10:27:11;102409.25;;;10.55
76381;BMP280;65202;52.520;10.528;2023-03-01T10:30:09;102407.81;;;10.69
76381;BMP280;65202;52.520;10.528;2023-03-01T10:33:01;102402.78;;;10.34
76381;BMP280;65202;52.520;10.528;2023-03-01T10:35:33;102395.03;;;10.54
76381;BMP280;65202;52.520;10.528;2023-03-01T10:38:09;102396.25;;;10.13
76381;BMP280;65202;52.520;10.528;2023-03-01T10:40:54;102389.38;;;10.33
76381;BMP280;65202;52.520;10.528;2023-03-01T10:43:25;102389.34;;;10.45
76381;BMP280;65202;52.520;10.528;2023-03-01T10:46:36;102387.16;;;9.92
76381;BMP280;65202;52.520;10.528;2023-03-01T10:49:18;102387.78;;;10.11
76381;BMP280;65202;52.520;10.528;2023-03-01T10:51:51;102388.03;;;9.37
76381;BMP280;65202;52.520;10.528;2023-03-01T10:54:24;102388.56;;;8.79
76381;BMP280;65202;52.520;10.528;2023-03-01T10:57:00;102385.56;;;10.27
76381;BMP280;65202;52.520;10.528;2023-03-01T10:59:32;102381.19;;;9.35
76381;BMP280;65202;52.520;10.528;2023-03-01T11:02:30;102383.03;;;9.37
76381;BMP280;65202;52.520;10.528;2023-03-01T11:05:18;102372.38;;;9.72
76381;BMP280;65202;52.520;10.528;2023-03-01T11:08:00;102376.81;;;9.53
76381;BMP280;65202;52.520;10.528;2023-03-01T11:10:35;102375.97;;;9.87
76381;BMP280;65202;52.520;10.528;2023-03-01T11:16:03;102375.56;;;9.16
76381;BMP280;65202;52.520;10.528;2023-03-01T11:18:33;102372.22;;;9.59
76381;BMP280;65202;52.520;10.528;2023-03-01T11:21:15;102359.88;;;9.95
76381;BMP280;65202;52.520;10.528;2023-03-01T11:23:45;102359.53;;;9.24
76381;BMP280;65202;52.520;10.528;2023-03-01T11:26:15;102364.84;;;9.17
76381;BMP280;65202;52.520;10.528;2023-03-01T11:28:48;102355.97;;;9.87
76381;BMP280;65202;52.520;10.528;2023-03-01T11:31:23;102363.31;;;9.63
76381;BMP280;65202;52.520;10.528;2023-03-01T11:33:57;102362.38;;;9.28
76381;BMP280;65202;52.520;10.528;2023-03-01T11:36:55;102361.16;;;9.67
76381;BMP280;65202;52.520;10.528;2023-03-01T11:39:37;102376.19;;;9.02
76381;BMP280;65202;52.520;10.528;2023-03-01T11:42:18;102354.22;;;9.86
76381;BMP280;65202;52.520;10.528;2023-03-01T11:44:53;102348.97;;;9.60
76381;BMP280;65202;52.520;10.528;2023-03-01T11:50:46;102355.88;;;9.30
76381;BMP280;65202;52.520;10.528;2023-03-01T11:53:39;102353.13;;;9.94
76381;BMP280;65202;52.520;10.528;2023-03-01T11:56:41;102351.13;;;9.12
76381;BMP280;65202;52.520;10.528;2023-03-01T11:59:38;102345.41;;;9.91
76381;BMP280;65202;52.520;10.528;2023-03-01T12:02:40;102338.09;;;9.94
76381;BMP280;65202;52.520;10.528;2023-03-01T12:05:42;102336.94;;;10.35
76381;BMP280;65202;52.520;10.528;2023-03-01T12:08:37;102335.31;;;10.01
76381;BMP280;65202;52.520;10.528;2023-03-01T12:14:19;102330.91;;;9.76
76381;BMP280;65202;52.520;10.528;2023-03-01T12:26:34;102314.59;;;9.69
76381;BMP280;65202;52.520;10.528;2023-03-01T12:29:24;102286.75;;;11.06
76381;BMP280;65202;52.520;10.528;2023-03-01T12:32:03;102299.84;;;10.06
76381;BMP280;65202;52.520;10.528;2023-03-01T12:37:47;102291.13;;;9.67
76381;BMP280;65202;52.520;10.528;2023-03-01T12:49:28;102259.88;;;10.79
76381;BMP280;65202;52.520;10.528;2023-03-01T12:52:20;102265.88;;;9.76
76381;BMP280;65202;52.520;10.528;2023-03-01T12:55:34;102248.22;;;10.56
76381;BMP280;65202;52.520;10.528;2023-03-01T12:58:35;102255.88;;;10.10
76381;BMP280;65202;52.520;10.528;2023-03-01T13:02:13;102253.25;;;10.20
76381;BMP280;65202;52.520;10.528;2023-03-01T13:05:06;102238.44;;;10.23
76381;BMP280;65202;52.520;10.528;2023-03-01T13:08:01;102234.75;;;10.18
76381;BMP280;65202;52.520;10.528;2023-03-01T13:10:59;102248.28;;;10.08
76381;BMP280;65202;52.520;10.528;2023-03-01T13:13:39;102237.66;;;10.24
76381;BMP280;65202;52.520;10.528;2023-03-01T13:16:39;102229.88;;;10.81
76381;BMP280;65202;52.520;10.528;2023-03-01T13:19:21;102228.97;;;10.19
76381;BMP280;65202;52.520;10.528;2023-03-01T13:22:31;102234.19;;;10.22
76381;BMP280;65202;52.520;10.528;2023-03-01T13:25:31;102223.41;;;10.47
76381;BMP280;65202;52.520;10.528;2023-03-01T13:34:02;102214.06;;;10.45
76381;BMP280;65202;52.520;10.528;2023-03-01T13:39:31;102211.75;;;9.65
76381;BMP280;65202;52.520;10.528;2023-03-01T13:42:37;102212.81;;;10.03
76381;BMP280;65202;52.520;10.528;2023-03-01T13:45:50;102217.47;;;9.87
76381;BMP280;65202;52.520;10.528;2023-03-01T13:48:26;102208.63;;;9.56
76381;BMP280;65202;52.520;10.528;2023-03-01T13:51:07;102208.63;;;9.56
76381;BMP280;65202;52.520;10.528;2023-03-01T13:53:41;102200.00;;;9.64
76381;BMP280;65202;52.520;10.528;2023-03-01T13:56:22;102208.56;;;9.90
76381;BMP280;65202;52.520;10.528;2023-03-01T13:59:19;102196.19;;;9.80
76381;BMP280;65202;52.520;10.528;2023-03-01T14:01:53;102192.78;;;10.03
76381;BMP280;65202;52.520;10.528;2023-03-01T14:07:20;102193.38;;;9.53
76381;BMP280;65202;52.520;10.528;2023-03-01T14:09:55;102178.34;;;10.23
76381;BMP280;65202;52.520;10.528;2023-03-01T14:20:43;102169.97;;;10.47
76381;BMP280;65202;52.520;10.528;2023-03-01T14:23:20;102169.81;;;10.08
76381;BMP280;65202;52.520;10.528;2023-03-01T14:25:51;102169.84;;;9.97
76381;BMP280;65202;52.520;10.528;2023-03-01T14:28:26;102158.19;;;9.97
76381;BMP280;65202;52.520;10.528;2023-03-01T14:30:57;102166.03;;;9.90
76381;BMP280;65202;52.520;10.528;2023-03-01T14:33:36;102165.31;;;9.57
76381;BMP280;65202;52.520;10.528;2023-03-01T14:36:11;102165.84;;;9.64
76381;BMP280;65202;52.520;10.528;2023-03-01T14:38:42;102163.72;;;9.46
76381;BMP280;65202;52.520;10.528;2023-03-01T14:41:22;102158.44;;;9.66
76381;BMP280;65202;52.520;10.528;2023-03-01T14:44:05;102162.84;;;9.45
76381;BMP280;65202;52.520;10.528;2023-03-01T14:46:40;102151.19;;;9.69
76381;BMP280;65202;52.520;10.528;2023-03-01T14:49:13;102153.38;;;9.41
76381;BMP280;65202;52.520;10.528;2023-03-01T14:52:33;102145.38;;;9.81
76381;BMP280;65202;52.520;10.528;2023-03-01T14:55:05;102142.25;;;9.72
76381;BMP280;65202;52.520;10.528;2023-03-01T14:57:43;102138.97;;;9.15
76381;BMP280;65202;52.520;10.528;2023-03-01T15:00:24;102143.59;;;9.33
76381;BMP280;65202;52.520;10.528;2023-03-01T15:02:55;102142.63;;;8.97
76381;BMP280;65202;52.520;10.528;2023-03-01T15:05:32;102140.25;;;9.21
76381;BMP280;65202;52.520;10.528;2023-03-01T15:08:02;102131.88;;;9.09
76381;BMP280;65202;52.520;10.528;2023-03-01T15:10:33;102130.06;;;9.30
76381;BMP280;65202;52.520;10.528;2023-03-01T15:13:25;102138.50;;;8.86
76381;BMP280;65202;52.520;10.528;2023-03-01T15:16:10;102137.41;;;8.94
76381;BMP280;65202;52.520;10.528;2023-03-01T15:18:45;102118.28;;;9.06
76381;BMP280;65202;52.520;10.528;2023-03-01T15:21:21;102124.16;;;8.83
76381;BMP280;65202;52.520;10.528;2023-03-01T15:23:53;102124.16;;;8.72
76381;BMP280;65202;52.520;10.528;2023-03-01T15:26:31;102135.88;;;8.73
76381;BMP280;65202;52.520;10.528;2023-03-01T15:29:04;102121.78;;;8.85
76381;BMP280;65202;52.520;10.528;2023-03-01T15:31:35;102127.41;;;8.60
76381;BMP280;65202;52.520;10.528;2023-03-01T15:34:35;102124.91;;;8.71
76381;BMP280;65202;52.520;10.528;2023-03-01T15:37:39;102129.56;;;8.78
76381;BMP280;65202;52.520;10.528;2023-03-01T15:40:25;102117.19;;;8.79